Terminal Aerodrome Forecast
Issued by NWS

Home | Current Version | Previous Version | Text Only | Print | Product List | Glossary On
Versions: 1 2 3 4 5 6 7 8 9 10 11 12 13 14 15 16 17 18 19 20 21 22 23 24 25 26
454
FTUS41 KOKX 010547
TAFSWF
TAF
KSWF 010547Z 0106/0212 00000KT P6SM BKN250
     FM011300 08004KT P6SM FEW250
     FM011600 11005KT P6SM SCT060
     FM011900 13007KT P6SM BKN060
     FM012300 13006KT P6SM SCT060
     FM020200 VRB03KT P6SM FEW060
     FM020600 VRB03KT 6SM BR FEW015
     FM020900 VRB03KT 5SM BR SCT015
      AMD NOT SKED=

USA.gov is the U.S. government's official web portal to all federal, state and local government web resources and services.